Novorossiysk, Russia
Current Conditions -  °F | °C
As of 8:00 AM on Tuesday 23 Dec 2014 (Local Time) from URKA Reporting Station
Rain Showers Rain Showers  
Wind Chill: 35°   Ceiling: 3200
Heat Index: 45°   Visibility: 6mi
Dew Point: 39°   Wind: 29mph
Humidity: 81%   Direction: 240°WSW
Pressure: 29.85"   Gusts: 40mph
Location:  44.72°N, 37.77°E
Report Text: URKA 230500Z 24013G18MPS 9999 -SHRA OVC032CB 07/04 Q1011 NOSIGRMK QFE753/1004 SC060
Loading
Personal Weather Stations






























Interactive Weather Map New forecast layout! Learn more

10-Day Weather Forecast

Advertisements
Track Severe Weather on mobile